Licking Creek, Pennsylvania
Current Conditions -  °F | °C
As of 6:53 AM on Friday 19 Dec 2014 (Local Time) from KAOO Reporting Station
Overcast Overcast  
Wind Chill: 18°   Ceiling: 1800
Heat Index: 29°   Visibility: 10mi
Dew Point: 22°   Wind: 15mph
Humidity: 75%   Direction: 310°NW
Pressure: 30.08"   Gusts: NA
Location:  39.9765°N, 78.0835°W
Report Text: KAOO 191153Z AUTO 31013KT 10SM OVC018 M02/M06 A3008 RMK AO2 SLP204 T10171056 11017 21022 53005
Loading
Personal Weather Stations






























Interactive Weather Map New forecast layout! Learn more

10-Day Weather Forecast

Advertisements
Track Severe Weather on mobile